sensor_id;sensor_type;location;lat;lon;timestamp;pressure;altitude;pressure_sealevel;temperature;humidity
48404;BME280;34202;52.536;6.042;2023-02-04T00:04:16;103282.02;;;6.43;100.00
48404;BME280;34202;52.536;6.042;2023-02-04T00:09:17;103281.46;;;6.40;100.00
48404;BME280;34202;52.536;6.042;2023-02-04T00:14:17;103284.94;;;6.37;100.00
48404;BME280;34202;52.536;6.042;2023-02-04T00:19:17;103297.80;;;6.36;100.00
48404;BME280;34202;52.536;6.042;2023-02-04T00:24:18;103305.53;;;6.35;100.00
48404;BME280;34202;52.536;6.042;2023-02-04T00:29:18;103307.98;;;6.33;100.00
48404;BME280;34202;52.536;6.042;2023-02-04T00:34:18;103304.61;;;6.31;100.00
48404;BME280;34202;52.536;6.042;2023-02-04T00:39:19;103311.80;;;6.30;100.00
48404;BME280;34202;52.536;6.042;2023-02-04T00:44:20;103313.99;;;6.29;100.00
48404;BME280;34202;52.536;6.042;2023-02-04T00:49:20;103313.64;;;6.29;100.00
48404;BME280;34202;52.536;6.042;2023-02-04T00:54:20;103321.24;;;6.29;100.00
48404;BME280;34202;52.536;6.042;2023-02-04T00:59:21;103320.57;;;6.29;100.00
48404;BME280;34202;52.536;6.042;2023-02-04T01:04:21;103328.05;;;6.30;100.00
48404;BME280;34202;52.536;6.042;2023-02-04T01:09:22;103331.17;;;6.30;100.00
48404;BME280;34202;52.536;6.042;2023-02-04T01:14:22;103335.31;;;6.30;100.00
48404;BME280;34202;52.536;6.042;2023-02-04T01:19:23;103337.67;;;6.29;100.00
48404;BME280;34202;52.536;6.042;2023-02-04T01:24:23;103347.89;;;6.27;100.00
48404;BME280;34202;52.536;6.042;2023-02-04T01:29:23;103365.59;;;6.25;100.00
48404;BME280;34202;52.536;6.042;2023-02-04T01:34:24;103363.76;;;6.24;100.00
48404;BME280;34202;52.536;6.042;2023-02-04T01:39:25;103365.74;;;6.22;100.00
48404;BME280;34202;52.536;6.042;2023-02-04T01:44:26;103377.02;;;6.20;100.00
48404;BME280;34202;52.536;6.042;2023-02-04T01:49:27;103378.42;;;6.17;100.00
48404;BME280;34202;52.536;6.042;2023-02-04T01:54:28;103379.58;;;6.16;100.00
48404;BME280;34202;52.536;6.042;2023-02-04T01:59:29;103383.67;;;6.16;100.00
48404;BME280;34202;52.536;6.042;2023-02-04T02:04:31;103384.85;;;6.15;100.00
48404;BME280;34202;52.536;6.042;2023-02-04T02:09:32;103388.38;;;6.16;100.00
48404;BME280;34202;52.536;6.042;2023-02-04T02:14:33;103396.52;;;6.16;100.00
48404;BME280;34202;52.536;6.042;2023-02-04T02:19:36;103403.65;;;6.17;100.00
48404;BME280;34202;52.536;6.042;2023-02-04T02:24:37;103407.32;;;6.17;100.00
48404;BME280;34202;52.536;6.042;2023-02-04T02:29:39;103411.26;;;6.17;100.00
48404;BME280;34202;52.536;6.042;2023-02-04T02:34:42;103409.38;;;6.17;100.00
48404;BME280;34202;52.536;6.042;2023-02-04T02:39:43;103409.92;;;6.18;100.00
48404;BME280;34202;52.536;6.042;2023-02-04T02:44:45;103413.73;;;6.18;100.00
48404;BME280;34202;52.536;6.042;2023-02-04T02:49:49;103420.38;;;6.16;100.00
48404;BME280;34202;52.536;6.042;2023-02-04T02:54:50;103413.20;;;6.15;100.00
48404;BME280;34202;52.536;6.042;2023-02-04T02:59:50;103414.20;;;6.14;100.00
48404;BME280;34202;52.536;6.042;2023-02-04T03:04:54;103413.16;;;6.15;100.00
48404;BME280;34202;52.536;6.042;2023-02-04T03:09:56;103426.59;;;6.14;100.00
48404;BME280;34202;52.536;6.042;2023-02-04T03:14:57;103432.48;;;6.14;100.00
48404;BME280;34202;52.536;6.042;2023-02-04T03:19:58;103439.58;;;6.14;100.00
48404;BME280;34202;52.536;6.042;2023-02-04T03:24:58;103439.90;;;6.13;100.00
48404;BME280;34202;52.536;6.042;2023-02-04T03:29:59;103441.42;;;6.13;100.00
48404;BME280;34202;52.536;6.042;2023-02-04T03:34:59;103441.59;;;6.13;100.00
48404;BME280;34202;52.536;6.042;2023-02-04T03:39:59;103437.94;;;6.13;100.00
48404;BME280;34202;52.536;6.042;2023-02-04T03:45:00;103435.05;;;6.11;100.00
48404;BME280;34202;52.536;6.042;2023-02-04T03:50:00;103443.45;;;6.10;100.00
48404;BME280;34202;52.536;6.042;2023-02-04T03:55:01;103448.23;;;6.09;100.00
48404;BME280;34202;52.536;6.042;2023-02-04T04:00:01;103450.73;;;6.08;100.00
48404;BME280;34202;52.536;6.042;2023-02-04T04:05:01;103457.47;;;6.07;100.00
48404;BME280;34202;52.536;6.042;2023-02-04T04:10:02;103459.87;;;6.07;100.00
48404;BME280;34202;52.536;6.042;2023-02-04T04:15:03;103466.35;;;6.06;100.00
48404;BME280;34202;52.536;6.042;2023-02-04T04:20:04;103469.54;;;6.05;100.00
48404;BME280;34202;52.536;6.042;2023-02-04T04:25:05;103470.08;;;6.02;100.00
48404;BME280;34202;52.536;6.042;2023-02-04T04:30:06;103472.66;;;5.99;100.00
48404;BME280;34202;52.536;6.042;2023-02-04T04:35:06;103478.56;;;5.97;100.00
48404;BME280;34202;52.536;6.042;2023-02-04T04:40:10;103486.27;;;5.94;100.00
48404;BME280;34202;52.536;6.042;2023-02-04T04:45:11;103494.33;;;5.91;100.00
48404;BME280;34202;52.536;6.042;2023-02-04T04:50:11;103505.36;;;5.88;100.00
48404;BME280;34202;52.536;6.042;2023-02-04T04:55:12;103507.52;;;5.86;100.00
48404;BME280;34202;52.536;6.042;2023-02-04T05:00:17;103515.70;;;5.85;100.00
48404;BME280;34202;52.536;6.042;2023-02-04T05:05:18;103525.42;;;5.85;100.00
48404;BME280;34202;52.536;6.042;2023-02-04T05:10:19;103528.35;;;5.85;100.00
48404;BME280;34202;52.536;6.042;2023-02-04T05:15:19;103529.95;;;5.86;100.00
48404;BME280;34202;52.536;6.042;2023-02-04T05:20:20;103532.48;;;5.85;100.00
48404;BME280;34202;52.536;6.042;2023-02-04T05:25:21;103535.70;;;5.84;100.00
48404;BME280;34202;52.536;6.042;2023-02-04T05:30:22;103535.92;;;5.85;100.00
48404;BME280;34202;52.536;6.042;2023-02-04T05:35:23;103535.42;;;5.85;100.00
48404;BME280;34202;52.536;6.042;2023-02-04T05:40:23;103535.33;;;5.86;100.00
48404;BME280;34202;52.536;6.042;2023-02-04T05:45:24;103535.34;;;5.86;100.00
48404;BME280;34202;52.536;6.042;2023-02-04T05:50:24;103537.86;;;5.85;100.00
48404;BME280;34202;52.536;6.042;2023-02-04T05:55:24;103539.11;;;5.83;100.00
48404;BME280;34202;52.536;6.042;2023-02-04T06:00:25;103544.41;;;5.80;100.00
48404;BME280;34202;52.536;6.042;2023-02-04T06:05:25;103545.48;;;5.78;100.00
48404;BME280;34202;52.536;6.042;2023-02-04T06:10:26;103548.84;;;5.76;100.00
48404;BME280;34202;52.536;6.042;2023-02-04T06:15:26;103549.89;;;5.74;100.00
48404;BME280;34202;52.536;6.042;2023-02-04T06:20:26;103558.20;;;5.72;100.00
48404;BME280;34202;52.536;6.042;2023-02-04T06:25:27;103567.20;;;5.70;100.00
48404;BME280;34202;52.536;6.042;2023-02-04T06:30:27;103571.63;;;5.66;100.00
48404;BME280;34202;52.536;6.042;2023-02-04T06:35:27;103577.95;;;5.63;100.00
48404;BME280;34202;52.536;6.042;2023-02-04T06:40:28;103589.24;;;5.59;100.00
48404;BME280;34202;52.536;6.042;2023-02-04T06:45:28;103594.36;;;5.56;100.00
48404;BME280;34202;52.536;6.042;2023-02-04T06:50:28;103597.56;;;5.52;100.00
48404;BME280;34202;52.536;6.042;2023-02-04T06:55:29;103597.79;;;5.48;100.00
48404;BME280;34202;52.536;6.042;2023-02-04T07:00:29;103605.01;;;5.42;100.00
48404;BME280;34202;52.536;6.042;2023-02-04T07:05:33;103609.54;;;5.38;100.00
48404;BME280;34202;52.536;6.042;2023-02-04T07:10:33;103614.05;;;5.34;100.00
48404;BME280;34202;52.536;6.042;2023-02-04T07:15:33;103618.47;;;5.28;100.00
48404;BME280;34202;52.536;6.042;2023-02-04T07:20:34;103620.95;;;5.24;100.00
48404;BME280;34202;52.536;6.042;2023-02-04T07:25:34;103628.88;;;5.21;100.00
48404;BME280;34202;52.536;6.042;2023-02-04T07:30:34;103629.97;;;5.20;100.00
48404;BME280;34202;52.536;6.042;2023-02-04T07:35:35;103636.59;;;5.16;100.00
48404;BME280;34202;52.536;6.042;2023-02-04T07:40:37;103647.72;;;5.10;100.00
48404;BME280;34202;52.536;6.042;2023-02-04T07:45:38;103656.82;;;5.07;100.00
48404;BME280;34202;52.536;6.042;2023-02-04T07:50:38;103663.65;;;5.06;100.00
48404;BME280;34202;52.536;6.042;2023-02-04T07:55:39;103669.08;;;5.07;100.00
48404;BME280;34202;52.536;6.042;2023-02-04T08:00:39;103672.83;;;5.09;100.00
48404;BME280;34202;52.536;6.042;2023-02-04T08:05:39;103675.84;;;5.12;100.00
48404;BME280;34202;52.536;6.042;2023-02-04T08:10:40;103680.29;;;5.14;100.00
48404;BME280;34202;52.536;6.042;2023-02-04T08:15:40;103685.74;;;5.15;100.00
48404;BME280;34202;52.536;6.042;2023-02-04T08:20:40;103694.87;;;5.19;100.00
48404;BME280;34202;52.536;6.042;2023-02-04T08:25:41;103701.62;;;5.24;100.00
48404;BME280;34202;52.536;6.042;2023-02-04T08:30:41;103710.51;;;5.30;100.00
48404;BME280;34202;52.536;6.042;2023-02-04T08:35:41;103716.01;;;5.34;100.00
48404;BME280;34202;52.536;6.042;2023-02-04T08:40:42;103719.23;;;5.38;100.00
48404;BME280;34202;52.536;6.042;2023-02-04T08:45:43;103728.62;;;5.44;100.00
48404;BME280;34202;52.536;6.042;2023-02-04T08:50:43;103729.64;;;5.51;100.00
48404;BME280;34202;52.536;6.042;2023-02-04T08:55:43;103733.16;;;5.58;100.00
48404;BME280;34202;52.536;6.042;2023-02-04T09:00:44;103729.43;;;5.67;100.00
48404;BME280;34202;52.536;6.042;2023-02-04T09:05:44;103730.63;;;5.76;100.00
48404;BME280;34202;52.536;6.042;2023-02-04T09:10:44;103736.64;;;5.85;100.00
48404;BME280;34202;52.536;6.042;2023-02-04T09:15:45;103740.49;;;5.93;100.00
48404;BME280;34202;52.536;6.042;2023-02-04T09:20:45;103748.85;;;6.01;100.00
48404;BME280;34202;52.536;6.042;2023-02-04T09:25:46;103753.87;;;6.08;100.00
48404;BME280;34202;52.536;6.042;2023-02-04T09:30:46;103759.48;;;6.16;100.00
48404;BME280;34202;52.536;6.042;2023-02-04T09:35:47;103752.88;;;6.24;100.00
48404;BME280;34202;52.536;6.042;2023-02-04T09:40:51;103750.90;;;6.32;100.00
48404;BME280;34202;52.536;6.042;2023-02-04T09:45:53;103758.14;;;6.41;100.00
48404;BME280;34202;52.536;6.042;2023-02-04T09:51:05;103764.67;;;6.53;100.00
48404;BME280;34202;52.536;6.042;2023-02-04T09:56:08;103766.86;;;6.65;100.00
48404;BME280;34202;52.536;6.042;2023-02-04T10:01:14;103767.55;;;6.70;100.00
48404;BME280;34202;52.536;6.042;2023-02-04T10:06:17;103777.84;;;6.78;100.00
48404;BME280;34202;52.536;6.042;2023-02-04T10:11:19;103790.75;;;6.90;100.00
48404;BME280;34202;52.536;6.042;2023-02-04T10:16:26;103797.05;;;7.04;100.00
48404;BME280;34202;52.536;6.042;2023-02-04T10:21:31;103801.14;;;7.15;100.00
48404;BME280;34202;52.536;6.042;2023-02-04T10:26:32;103804.36;;;7.25;100.00
48404;BME280;34202;52.536;6.042;2023-02-04T10:31:38;103803.86;;;7.30;100.00
48404;BME280;34202;52.536;6.042;2023-02-04T10:36:41;103800.46;;;7.39;100.00
48404;BME280;34202;52.536;6.042;2023-02-04T10:41:53;103799.37;;;7.48;100.00
48404;BME280;34202;52.536;6.042;2023-02-04T10:47:01;103799.95;;;7.60;100.00
48404;BME280;34202;52.536;6.042;2023-02-04T10:52:14;103797.16;;;7.67;100.00
48404;BME280;34202;52.536;6.042;2023-02-04T10:57:21;103803.17;;;7.69;100.00
48404;BME280;34202;52.536;6.042;2023-02-04T11:07:38;103813.77;;;7.77;100.00
48404;BME280;34202;52.536;6.042;2023-02-04T11:13:18;103819.98;;;7.88;100.00
48404;BME280;34202;52.536;6.042;2023-02-04T11:34:10;103807.47;;;8.11;100.00
48404;BME280;34202;52.536;6.042;2023-02-04T11:39:15;103805.12;;;8.12;100.00
48404;BME280;34202;52.536;6.042;2023-02-04T11:44:16;103810.14;;;8.15;100.00
48404;BME280;34202;52.536;6.042;2023-02-04T11:49:19;103808.80;;;8.21;100.00
48404;BME280;34202;52.536;6.042;2023-02-04T11:54:19;103810.98;;;8.28;100.00
48404;BME280;34202;52.536;6.042;2023-02-04T11:59:20;103805.11;;;8.34;100.00
48404;BME280;34202;52.536;6.042;2023-02-04T12:04:22;103799.33;;;8.44;100.00
48404;BME280;34202;52.536;6.042;2023-02-04T12:09:26;103796.08;;;8.53;100.00
48404;BME280;34202;52.536;6.042;2023-02-04T12:14:37;103794.98;;;8.63;100.00
48404;BME280;34202;52.536;6.042;2023-02-04T12:19:37;103793.05;;;8.72;100.00
48404;BME280;34202;52.536;6.042;2023-02-04T12:24:38;103792.61;;;8.73;100.00
48404;BME280;34202;52.536;6.042;2023-02-04T12:29:38;103793.02;;;8.80;100.00
48404;BME280;34202;52.536;6.042;2023-02-04T12:34:38;103794.86;;;8.87;100.00
48404;BME280;34202;52.536;6.042;2023-02-04T12:39:39;103790.84;;;8.92;100.00
48404;BME280;34202;52.536;6.042;2023-02-04T12:44:39;103795.38;;;8.99;100.00
48404;BME280;34202;52.536;6.042;2023-02-04T12:49:39;103801.27;;;9.01;100.00
48404;BME280;34202;52.536;6.042;2023-02-04T12:54:40;103801.90;;;9.02;100.00
48404;BME280;34202;52.536;6.042;2023-02-04T12:59:40;103800.73;;;9.06;100.00
48404;BME280;34202;52.536;6.042;2023-02-04T13:04:40;103798.29;;;9.09;100.00
48404;BME280;34202;52.536;6.042;2023-02-04T13:09:41;103799.80;;;9.11;100.00
48404;BME280;34202;52.536;6.042;2023-02-04T13:14:41;103798.25;;;9.12;100.00
48404;BME280;34202;52.536;6.042;2023-02-04T13:19:42;103794.84;;;9.13;100.00
48404;BME280;34202;52.536;6.042;2023-02-04T13:24:42;103793.41;;;9.12;100.00
48404;BME280;34202;52.536;6.042;2023-02-04T13:29:43;103789.91;;;9.12;100.00
48404;BME280;34202;52.536;6.042;2023-02-04T13:34:44;103789.88;;;9.08;100.00
48404;BME280;34202;52.536;6.042;2023-02-04T13:39:44;103794.31;;;9.04;100.00
48404;BME280;34202;52.536;6.042;2023-02-04T13:44:44;103788.22;;;9.01;100.00
48404;BME280;34202;52.536;6.042;2023-02-04T13:49:44;103786.49;;;8.98;100.00
48404;BME280;34202;52.536;6.042;2023-02-04T13:54:45;103783.48;;;8.94;100.00
48404;BME280;34202;52.536;6.042;2023-02-04T13:59:45;103780.10;;;8.93;100.00
48404;BME280;34202;52.536;6.042;2023-02-04T14:04:46;103778.11;;;8.91;100.00
48404;BME280;34202;52.536;6.042;2023-02-04T14:09:46;103777.39;;;8.91;100.00
48404;BME280;34202;52.536;6.042;2023-02-04T14:14:47;103777.84;;;8.90;100.00
48404;BME280;34202;52.536;6.042;2023-02-04T14:19:47;103786.90;;;8.87;100.00
48404;BME280;34202;52.536;6.042;2023-02-04T14:24:48;103793.08;;;8.86;100.00
48404;BME280;34202;52.536;6.042;2023-02-04T14:29:49;103788.42;;;8.84;100.00
48404;BME280;34202;52.536;6.042;2023-02-04T14:34:49;103790.52;;;8.78;100.00
48404;BME280;34202;52.536;6.042;2023-02-04T14:39:50;103800.05;;;8.75;100.00
48404;BME280;34202;52.536;6.042;2023-02-04T14:44:50;103803.31;;;8.72;100.00
48404;BME280;34202;52.536;6.042;2023-02-04T14:49:50;103794.04;;;8.68;100.00
48404;BME280;34202;52.536;6.042;2023-02-04T14:54:51;103795.77;;;8.65;100.00
48404;BME280;34202;52.536;6.042;2023-02-04T14:59:51;103800.48;;;8.57;100.00
48404;BME280;34202;52.536;6.042;2023-02-04T15:04:51;103805.55;;;8.52;100.00
48404;BME280;34202;52.536;6.042;2023-02-04T15:09:52;103808.57;;;8.47;100.00
48404;BME280;34202;52.536;6.042;2023-02-04T15:14:52;103813.42;;;8.44;100.00
48404;BME280;34202;52.536;6.042;2023-02-04T15:19:52;103822.05;;;8.41;100.00
48404;BME280;34202;52.536;6.042;2023-02-04T15:24:53;103822.09;;;8.37;100.00
48404;BME280;34202;52.536;6.042;2023-02-04T15:29:53;103830.73;;;8.30;100.00
48404;BME280;34202;52.536;6.042;2023-02-04T15:34:54;103837.81;;;8.25;100.00
48404;BME280;34202;52.536;6.042;2023-02-04T15:39:54;103846.45;;;8.19;100.00
48404;BME280;34202;52.536;6.042;2023-02-04T15:44:55;103841.85;;;8.12;100.00
48404;BME280;34202;52.536;6.042;2023-02-04T15:49:55;103839.38;;;8.06;100.00
48404;BME280;34202;52.536;6.042;2023-02-04T15:54:55;103836.78;;;8.01;100.00
48404;BME280;34202;52.536;6.042;2023-02-04T15:59:56;103834.39;;;7.96;100.00
48404;BME280;34202;52.536;6.042;2023-02-04T16:04:57;103832.48;;;7.93;100.00
48404;BME280;34202;52.536;6.042;2023-02-04T16:09:57;103832.05;;;7.89;100.00
48404;BME280;34202;52.536;6.042;2023-02-04T16:14:58;103837.78;;;7.87;100.00
48404;BME280;34202;52.536;6.042;2023-02-04T16:19:58;103845.98;;;7.85;100.00
48404;BME280;34202;52.536;6.042;2023-02-04T16:24:58;103844.90;;;7.84;100.00
48404;BME280;34202;52.536;6.042;2023-02-04T16:30:00;103846.62;;;7.81;100.00
48404;BME280;34202;52.536;6.042;2023-02-04T16:35:00;103851.06;;;7.78;100.00
48404;BME280;34202;52.536;6.042;2023-02-04T16:40:04;103854.05;;;7.76;100.00
48404;BME280;34202;52.536;6.042;2023-02-04T16:45:05;103854.15;;;7.74;100.00
48404;BME280;34202;52.536;6.042;2023-02-04T16:50:06;103851.40;;;7.75;100.00
48404;BME280;34202;52.536;6.042;2023-02-04T16:55:07;103853.24;;;7.74;100.00
48404;BME280;34202;52.536;6.042;2023-02-04T17:00:08;103855.23;;;7.72;100.00
48404;BME280;34202;52.536;6.042;2023-02-04T17:05:09;103859.29;;;7.71;100.00
48404;BME280;34202;52.536;6.042;2023-02-04T17:10:09;103864.63;;;7.68;100.00
48404;BME280;34202;52.536;6.042;2023-02-04T17:15:10;103868.60;;;7.65;100.00
48404;BME280;34202;52.536;6.042;2023-02-04T17:20:10;103873.39;;;7.62;100.00
48404;BME280;34202;52.536;6.042;2023-02-04T17:25:10;103874.33;;;7.57;100.00
48404;BME280;34202;52.536;6.042;2023-02-04T17:30:11;103867.98;;;7.53;100.00
48404;BME280;34202;52.536;6.042;2023-02-04T17:35:12;103864.33;;;7.50;100.00
48404;BME280;34202;52.536;6.042;2023-02-04T17:40:12;103865.13;;;7.47;100.00
48404;BME280;34202;52.536;6.042;2023-02-04T17:45:13;103864.48;;;7.45;100.00
48404;BME280;34202;52.536;6.042;2023-02-04T17:50:13;103864.27;;;7.45;100.00
48404;BME280;34202;52.536;6.042;2023-02-04T17:55:27;103871.77;;;7.42;100.00
48404;BME280;34202;52.536;6.042;2023-02-04T18:00:29;103881.18;;;7.41;100.00
48404;BME280;34202;52.536;6.042;2023-02-04T18:05:33;103885.88;;;7.41;99.98
48404;BME280;34202;52.536;6.042;2023-02-04T18:10:35;103888.05;;;7.40;99.99
48404;BME280;34202;52.536;6.042;2023-02-04T18:15:36;103896.80;;;7.39;99.98
48404;BME280;34202;52.536;6.042;2023-02-04T18:20:36;103902.41;;;7.37;99.98
48404;BME280;34202;52.536;6.042;2023-02-04T18:25:37;103898.21;;;7.37;99.99
48404;BME280;34202;52.536;6.042;2023-02-04T18:30:37;103898.38;;;7.36;100.00
48404;BME280;34202;52.536;6.042;2023-02-04T18:35:42;103892.08;;;7.35;99.98
48404;BME280;34202;52.536;6.042;2023-02-04T18:40:43;103894.57;;;7.34;100.00
48404;BME280;34202;52.536;6.042;2023-02-04T18:45:43;103893.17;;;7.34;100.00
48404;BME280;34202;52.536;6.042;2023-02-04T18:50:44;103896.48;;;7.34;99.99
48404;BME280;34202;52.536;6.042;2023-02-04T18:55:51;103904.13;;;7.34;100.00
48404;BME280;34202;52.536;6.042;2023-02-04T19:00:59;103900.52;;;7.35;100.00
48404;BME280;34202;52.536;6.042;2023-02-04T19:06:01;103893.95;;;7.32;99.97
48404;BME280;34202;52.536;6.042;2023-02-04T19:11:02;103892.96;;;7.31;99.98
48404;BME280;34202;52.536;6.042;2023-02-04T19:16:40;103891.43;;;7.29;100.00
48404;BME280;34202;52.536;6.042;2023-02-04T19:21:40;103893.77;;;7.27;100.00
48404;BME280;34202;52.536;6.042;2023-02-04T19:26:57;103899.90;;;7.26;100.00
48404;BME280;34202;52.536;6.042;2023-02-04T19:32:04;103905.83;;;7.24;100.00
48404;BME280;34202;52.536;6.042;2023-02-04T19:37:24;103903.15;;;7.23;100.00
48404;BME280;34202;52.536;6.042;2023-02-04T19:42:36;103902.20;;;7.21;100.00
48404;BME280;34202;52.536;6.042;2023-02-04T19:47:41;103899.66;;;7.20;100.00
48404;BME280;34202;52.536;6.042;2023-02-04T19:57:53;103893.75;;;7.20;100.00
48404;BME280;34202;52.536;6.042;2023-02-04T20:02:56;103895.11;;;7.19;100.00
48404;BME280;34202;52.536;6.042;2023-02-04T20:08:38;103885.82;;;7.18;100.00
48404;BME280;34202;52.536;6.042;2023-02-04T20:13:39;103883.06;;;7.13;100.00
48404;BME280;34202;52.536;6.042;2023-02-04T20:18:39;103880.02;;;7.09;100.00
48404;BME280;34202;52.536;6.042;2023-02-04T20:23:39;103867.31;;;7.08;100.00
48404;BME280;34202;52.536;6.042;2023-02-04T20:28:41;103869.16;;;7.07;100.00
48404;BME280;34202;52.536;6.042;2023-02-04T20:33:53;103877.09;;;7.07;100.00
48404;BME280;34202;52.536;6.042;2023-02-04T20:39:06;103885.35;;;7.06;100.00
48404;BME280;34202;52.536;6.042;2023-02-04T20:44:16;103888.13;;;7.06;100.00
48404;BME280;34202;52.536;6.042;2023-02-04T20:49:23;103885.33;;;7.05;100.00
48404;BME280;34202;52.536;6.042;2023-02-04T20:54:26;103884.30;;;7.05;100.00
48404;BME280;34202;52.536;6.042;2023-02-04T20:59:31;103880.52;;;7.06;100.00
48404;BME280;34202;52.536;6.042;2023-02-04T21:04:34;103875.31;;;7.03;100.00
48404;BME280;34202;52.536;6.042;2023-02-04T21:09:37;103859.55;;;7.01;100.00
48404;BME280;34202;52.536;6.042;2023-02-04T21:14:39;103854.52;;;6.98;100.00
48404;BME280;34202;52.536;6.042;2023-02-04T21:19:40;103858.39;;;6.94;100.00
48404;BME280;34202;52.536;6.042;2023-02-04T21:24:40;103847.65;;;6.91;100.00
48404;BME280;34202;52.536;6.042;2023-02-04T21:29:43;103839.06;;;6.90;100.00
48404;BME280;34202;52.536;6.042;2023-02-04T21:34:43;103841.70;;;6.88;100.00
48404;BME280;34202;52.536;6.042;2023-02-04T21:39:44;103832.67;;;6.85;100.00
48404;BME280;34202;52.536;6.042;2023-02-04T21:44:44;103839.31;;;6.84;100.00
48404;BME280;34202;52.536;6.042;2023-02-04T21:49:44;103850.56;;;6.86;100.00
48404;BME280;34202;52.536;6.042;2023-02-04T21:54:45;103853.73;;;6.89;100.00
48404;BME280;34202;52.536;6.042;2023-02-04T21:59:45;103852.02;;;6.92;100.00
48404;BME280;34202;52.536;6.042;2023-02-04T22:04:47;103857.04;;;6.94;100.00
48404;BME280;34202;52.536;6.042;2023-02-04T22:09:47;103857.26;;;6.95;100.00
48404;BME280;34202;52.536;6.042;2023-02-04T22:14:49;103856.07;;;6.93;100.00
48404;BME280;34202;52.536;6.042;2023-02-04T22:19:49;103856.33;;;6.89;100.00
48404;BME280;34202;52.536;6.042;2023-02-04T22:24:49;103853.88;;;6.87;100.00
48404;BME280;34202;52.536;6.042;2023-02-04T22:29:50;103852.70;;;6.85;100.00
48404;BME280;34202;52.536;6.042;2023-02-04T22:34:50;103848.95;;;6.83;100.00
48404;BME280;34202;52.536;6.042;2023-02-04T22:39:51;103850.98;;;6.80;100.00
48404;BME280;34202;52.536;6.042;2023-02-04T22:44:51;103847.05;;;6.75;100.00
48404;BME280;34202;52.536;6.042;2023-02-04T22:49:51;103845.49;;;6.73;100.00
48404;BME280;34202;52.536;6.042;2023-02-04T22:54:51;103843.92;;;6.71;100.00
48404;BME280;34202;52.536;6.042;2023-02-04T22:59:52;103840.16;;;6.69;100.00
48404;BME280;34202;52.536;6.042;2023-02-04T23:04:52;103825.07;;;6.66;100.00
48404;BME280;34202;52.536;6.042;2023-02-04T23:09:53;103824.52;;;6.63;100.00
48404;BME280;34202;52.536;6.042;2023-02-04T23:14:53;103824.48;;;6.60;100.00
48404;BME280;34202;52.536;6.042;2023-02-04T23:19:53;103816.52;;;6.57;100.00
48404;BME280;34202;52.536;6.042;2023-02-04T23:24:54;103813.45;;;6.53;100.00
48404;BME280;34202;52.536;6.042;2023-02-04T23:29:54;103801.61;;;6.50;100.00
48404;BME280;34202;52.536;6.042;2023-02-04T23:34:54;103790.58;;;6.47;100.00
48404;BME280;34202;52.536;6.042;2023-02-04T23:39:55;103767.92;;;6.45;100.00
48404;BME280;34202;52.536;6.042;2023-02-04T23:44:55;103754.51;;;6.42;100.00
48404;BME280;34202;52.536;6.042;2023-02-04T23:49:55;103752.10;;;6.37;100.00
48404;BME280;34202;52.536;6.042;2023-02-04T23:54:56;103765.11;;;6.32;100.00
48404;BME280;34202;52.536;6.042;2023-02-04T23:59:56;103757.40;;;6.31;100.00
